sensor_id;sensor_type;location;lat;lon;timestamp;pressure;altitude;pressure_sealevel;temperature;humidity
1616;BME280;801;47.982;7.810;2023-05-21T00:01:33;98165.09;;;17.35;100.00
1616;BME280;801;47.982;7.810;2023-05-21T00:03:59;98165.34;;;17.25;100.00
1616;BME280;801;47.982;7.810;2023-05-21T00:06:25;98163.13;;;17.27;100.00
1616;BME280;801;47.982;7.810;2023-05-21T00:08:52;98169.06;;;17.29;100.00
1616;BME280;801;47.982;7.810;2023-05-21T00:11:18;98170.59;;;17.21;100.00
1616;BME280;801;47.982;7.810;2023-05-21T00:13:47;98166.50;;;17.32;100.00
1616;BME280;801;47.982;7.810;2023-05-21T00:16:14;98167.31;;;17.33;100.00
1616;BME280;801;47.982;7.810;2023-05-21T00:18:40;98167.84;;;17.12;100.00
1616;BME280;801;47.982;7.810;2023-05-21T00:21:07;98164.03;;;17.13;100.00
1616;BME280;801;47.982;7.810;2023-05-21T00:23:33;98160.09;;;17.19;100.00
1616;BME280;801;47.982;7.810;2023-05-21T00:26:00;98166.34;;;17.29;100.00
1616;BME280;801;47.982;7.810;2023-05-21T00:28:27;98165.47;;;17.11;100.00
1616;BME280;801;47.982;7.810;2023-05-21T00:30:54;98163.06;;;17.09;100.00
1616;BME280;801;47.982;7.810;2023-05-21T00:33:21;98161.81;;;17.15;100.00
1616;BME280;801;47.982;7.810;2023-05-21T00:35:50;98156.13;;;16.86;100.00
1616;BME280;801;47.982;7.810;2023-05-21T00:38:17;98162.88;;;17.06;100.00
1616;BME280;801;47.982;7.810;2023-05-21T00:40:43;98156.06;;;17.08;100.00
1616;BME280;801;47.982;7.810;2023-05-21T00:43:10;98155.91;;;17.13;100.00
1616;BME280;801;47.982;7.810;2023-05-21T00:45:39;98163.28;;;17.21;100.00
1616;BME280;801;47.982;7.810;2023-05-21T00:48:10;98164.31;;;17.03;100.00
1616;BME280;801;47.982;7.810;2023-05-21T00:50:39;98156.66;;;17.05;100.00
1616;BME280;801;47.982;7.810;2023-05-21T00:53:06;98150.88;;;16.98;100.00
1616;BME280;801;47.982;7.810;2023-05-21T00:55:34;98149.41;;;16.92;100.00
1616;BME280;801;47.982;7.810;2023-05-21T00:58:00;98151.97;;;16.88;100.00
1616;BME280;801;47.982;7.810;2023-05-21T01:00:29;98157.63;;;16.78;100.00
1616;BME280;801;47.982;7.810;2023-05-21T01:02:57;98158.34;;;16.61;100.00
1616;BME280;801;47.982;7.810;2023-05-21T01:05:25;98157.38;;;16.57;100.00
1616;BME280;801;47.982;7.810;2023-05-21T01:07:52;98151.25;;;16.51;100.00
1616;BME280;801;47.982;7.810;2023-05-21T01:10:18;98147.13;;;16.54;100.00
1616;BME280;801;47.982;7.810;2023-05-21T01:12:46;98147.13;;;16.54;100.00
1616;BME280;801;47.982;7.810;2023-05-21T01:15:13;98150.25;;;16.47;100.00
1616;BME280;801;47.982;7.810;2023-05-21T01:17:40;98142.13;;;16.47;100.00
1616;BME280;801;47.982;7.810;2023-05-21T01:20:07;98143.97;;;16.60;100.00
1616;BME280;801;47.982;7.810;2023-05-21T01:22:37;98149.81;;;16.54;100.00
1616;BME280;801;47.982;7.810;2023-05-21T01:25:09;98149.97;;;16.49;100.00
1616;BME280;801;47.982;7.810;2023-05-21T01:27:36;98138.19;;;16.53;100.00
1616;BME280;801;47.982;7.810;2023-05-21T01:30:03;98137.25;;;16.58;100.00
1616;BME280;801;47.982;7.810;2023-05-21T01:32:33;98139.84;;;16.40;100.00
1616;BME280;801;47.982;7.810;2023-05-21T01:35:03;98140.41;;;16.29;100.00
1616;BME280;801;47.982;7.810;2023-05-21T01:37:34;98135.19;;;16.10;100.00
1616;BME280;801;47.982;7.810;2023-05-21T01:40:06;98135.19;;;16.10;100.00
1616;BME280;801;47.982;7.810;2023-05-21T01:42:36;98139.72;;;16.01;100.00
1616;BME280;801;47.982;7.810;2023-05-21T01:45:05;98137.13;;;15.95;100.00
1616;BME280;801;47.982;7.810;2023-05-21T01:47:34;98134.44;;;16.18;100.00
1616;BME280;801;47.982;7.810;2023-05-21T01:50:02;98135.56;;;16.17;100.00
1616;BME280;801;47.982;7.810;2023-05-21T01:52:30;98130.88;;;16.09;100.00
1616;BME280;801;47.982;7.810;2023-05-21T01:54:56;98132.66;;;16.13;100.00
1616;BME280;801;47.982;7.810;2023-05-21T01:57:24;98127.66;;;16.07;100.00
1616;BME280;801;47.982;7.810;2023-05-21T01:59:52;98122.50;;;15.96;100.00
1616;BME280;801;47.982;7.810;2023-05-21T02:02:19;98125.38;;;16.00;100.00
1616;BME280;801;47.982;7.810;2023-05-21T02:04:46;98123.09;;;15.93;100.00
1616;BME280;801;47.982;7.810;2023-05-21T02:07:14;98124.09;;;15.97;100.00
1616;BME280;801;47.982;7.810;2023-05-21T02:09:40;98130.44;;;16.15;100.00
1616;BME280;801;47.982;7.810;2023-05-21T02:12:07;98123.53;;;16.09;100.00
1616;BME280;801;47.982;7.810;2023-05-21T02:14:33;98123.44;;;16.14;100.00
1616;BME280;801;47.982;7.810;2023-05-21T02:17:01;98124.28;;;16.01;100.00
1616;BME280;801;47.982;7.810;2023-05-21T02:19:28;98129.28;;;16.08;100.00
1616;BME280;801;47.982;7.810;2023-05-21T02:21:54;98124.22;;;16.15;100.00
1616;BME280;801;47.982;7.810;2023-05-21T02:24:21;98123.47;;;16.01;100.00
1616;BME280;801;47.982;7.810;2023-05-21T02:26:48;98115.47;;;15.95;100.00
1616;BME280;801;47.982;7.810;2023-05-21T02:29:15;98114.22;;;15.79;100.00
1616;BME280;801;47.982;7.810;2023-05-21T02:31:42;98107.69;;;15.80;100.00
1616;BME280;801;47.982;7.810;2023-05-21T02:34:09;98103.00;;;15.72;100.00
1616;BME280;801;47.982;7.810;2023-05-21T02:36:36;98110.88;;;15.82;100.00
1616;BME280;801;47.982;7.810;2023-05-21T02:39:02;98106.25;;;15.83;100.00
1616;BME280;801;47.982;7.810;2023-05-21T02:41:29;98108.44;;;15.72;100.00
1616;BME280;801;47.982;7.810;2023-05-21T02:43:55;98105.91;;;15.75;100.00
1616;BME280;801;47.982;7.810;2023-05-21T02:46:22;98105.19;;;15.70;100.00
1616;BME280;801;47.982;7.810;2023-05-21T02:48:48;98108.19;;;15.82;100.00
1616;BME280;801;47.982;7.810;2023-05-21T02:51:16;98102.97;;;15.86;100.00
1616;BME280;801;47.982;7.810;2023-05-21T02:53:43;98102.03;;;15.90;100.00
1616;BME280;801;47.982;7.810;2023-05-21T02:56:09;98102.28;;;15.80;100.00
1616;BME280;801;47.982;7.810;2023-05-21T02:58:36;98111.47;;;15.93;100.00
1616;BME280;801;47.982;7.810;2023-05-21T03:01:03;98113.72;;;15.77;100.00
1616;BME280;801;47.982;7.810;2023-05-21T03:03:29;98119.22;;;15.86;100.00
1616;BME280;801;47.982;7.810;2023-05-21T03:05:56;98120.28;;;15.98;100.00
1616;BME280;801;47.982;7.810;2023-05-21T03:08:24;98122.53;;;16.05;100.00
1616;BME280;801;47.982;7.810;2023-05-21T03:10:51;98118.28;;;15.90;100.00
1616;BME280;801;47.982;7.810;2023-05-21T03:13:17;98120.72;;;15.78;100.00
1616;BME280;801;47.982;7.810;2023-05-21T03:15:44;98120.72;;;15.92;100.00
1616;BME280;801;47.982;7.810;2023-05-21T03:18:11;98121.16;;;15.57;100.00
1616;BME280;801;47.982;7.810;2023-05-21T03:20:38;98116.16;;;15.51;100.00
1616;BME280;801;47.982;7.810;2023-05-21T03:23:07;98114.53;;;15.64;100.00
1616;BME280;801;47.982;7.810;2023-05-21T03:25:38;98115.03;;;15.80;100.00
1616;BME280;801;47.982;7.810;2023-05-21T03:28:04;98119.81;;;15.83;100.00
1616;BME280;801;47.982;7.810;2023-05-21T03:30:31;98123.78;;;15.76;100.00
1616;BME280;801;47.982;7.810;2023-05-21T03:32:58;98132.81;;;15.72;100.00
1616;BME280;801;47.982;7.810;2023-05-21T03:35:24;98136.59;;;15.71;100.00
1616;BME280;801;47.982;7.810;2023-05-21T03:37:51;98136.19;;;15.64;100.00
1616;BME280;801;47.982;7.810;2023-05-21T03:40:17;98136.63;;;15.57;100.00
1616;BME280;801;47.982;7.810;2023-05-21T03:42:47;98142.44;;;15.50;100.00
1616;BME280;801;47.982;7.810;2023-05-21T03:45:13;98145.44;;;15.49;100.00
1616;BME280;801;47.982;7.810;2023-05-21T03:47:40;98142.06;;;15.43;100.00
1616;BME280;801;47.982;7.810;2023-05-21T03:50:08;98141.66;;;15.36;100.00
1616;BME280;801;47.982;7.810;2023-05-21T03:52:35;98141.06;;;15.25;100.00
1616;BME280;801;47.982;7.810;2023-05-21T03:55:01;98148.69;;;15.37;100.00
1616;BME280;801;47.982;7.810;2023-05-21T03:57:28;98145.34;;;15.40;100.00
1616;BME280;801;47.982;7.810;2023-05-21T03:59:56;98151.69;;;15.35;100.00
1616;BME280;801;47.982;7.810;2023-05-21T04:02:24;98158.38;;;15.38;100.00
1616;BME280;801;47.982;7.810;2023-05-21T04:04:51;98161.91;;;15.39;100.00
1616;BME280;801;47.982;7.810;2023-05-21T04:07:17;98155.69;;;15.38;100.00
1616;BME280;801;47.982;7.810;2023-05-21T04:09:44;98160.91;;;15.48;100.00
1616;BME280;801;47.982;7.810;2023-05-21T04:12:11;98162.47;;;15.49;100.00
1616;BME280;801;47.982;7.810;2023-05-21T04:14:37;98165.81;;;15.46;100.00
1616;BME280;801;47.982;7.810;2023-05-21T04:17:05;98167.50;;;15.42;100.00
1616;BME280;801;47.982;7.810;2023-05-21T04:19:33;98171.53;;;15.17;100.00
1616;BME280;801;47.982;7.810;2023-05-21T04:21:59;98172.16;;;15.28;100.00
1616;BME280;801;47.982;7.810;2023-05-21T04:24:27;98171.34;;;15.41;100.00
1616;BME280;801;47.982;7.810;2023-05-21T04:26:53;98178.56;;;15.46;100.00
1616;BME280;801;47.982;7.810;2023-05-21T04:29:20;98174.34;;;15.40;100.00
1616;BME280;801;47.982;7.810;2023-05-21T04:31:47;98181.03;;;15.42;100.00
1616;BME280;801;47.982;7.810;2023-05-21T04:34:15;98179.53;;;15.22;100.00
1616;BME280;801;47.982;7.810;2023-05-21T04:36:43;98179.25;;;15.24;100.00
1616;BME280;801;47.982;7.810;2023-05-21T04:39:10;98188.56;;;15.31;100.00
1616;BME280;801;47.982;7.810;2023-05-21T04:41:37;98185.00;;;15.36;100.00
1616;BME280;801;47.982;7.810;2023-05-21T04:44:05;98189.28;;;15.37;100.00
1616;BME280;801;47.982;7.810;2023-05-21T04:46:32;98187.59;;;15.41;100.00
1616;BME280;801;47.982;7.810;2023-05-21T04:48:59;98189.69;;;15.44;100.00
1616;BME280;801;47.982;7.810;2023-05-21T04:51:28;98186.38;;;15.33;100.00
1616;BME280;801;47.982;7.810;2023-05-21T04:53:55;98192.09;;;15.32;100.00
1616;BME280;801;47.982;7.810;2023-05-21T04:56:22;98192.59;;;15.34;100.00
1616;BME280;801;47.982;7.810;2023-05-21T04:58:50;98191.78;;;15.33;100.00
1616;BME280;801;47.982;7.810;2023-05-21T05:01:18;98195.81;;;15.36;100.00
1616;BME280;801;47.982;7.810;2023-05-21T05:03:47;98192.78;;;15.38;100.00
1616;BME280;801;47.982;7.810;2023-05-21T05:06:13;98191.38;;;15.40;100.00
1616;BME280;801;47.982;7.810;2023-05-21T05:08:42;98196.41;;;15.33;100.00
1616;BME280;801;47.982;7.810;2023-05-21T05:11:09;98199.22;;;15.28;100.00
1616;BME280;801;47.982;7.810;2023-05-21T05:13:36;98189.47;;;15.27;100.00
1616;BME280;801;47.982;7.810;2023-05-21T05:16:03;98189.47;;;15.27;100.00
1616;BME280;801;47.982;7.810;2023-05-21T05:18:30;98193.19;;;15.31;100.00
1616;BME280;801;47.982;7.810;2023-05-21T05:20:58;98200.41;;;15.35;100.00
1616;BME280;801;47.982;7.810;2023-05-21T05:23:24;98194.59;;;15.42;100.00
1616;BME280;801;47.982;7.810;2023-05-21T05:25:52;98194.28;;;15.44;100.00
1616;BME280;801;47.982;7.810;2023-05-21T05:28:19;98192.59;;;15.48;100.00
1616;BME280;801;47.982;7.810;2023-05-21T05:30:45;98192.38;;;15.44;100.00
1616;BME280;801;47.982;7.810;2023-05-21T05:33:12;98187.84;;;15.53;100.00
1616;BME280;801;47.982;7.810;2023-05-21T05:35:38;98188.44;;;15.64;100.00
1616;BME280;801;47.982;7.810;2023-05-21T05:38:04;98184.34;;;15.67;100.00
1616;BME280;801;47.982;7.810;2023-05-21T05:40:33;98177.94;;;15.76;100.00
1616;BME280;801;47.982;7.810;2023-05-21T05:43:01;98187.53;;;15.83;100.00
1616;BME280;801;47.982;7.810;2023-05-21T05:45:27;98181.13;;;15.92;100.00
1616;BME280;801;47.982;7.810;2023-05-21T05:47:54;98186.72;;;15.96;100.00
1616;BME280;801;47.982;7.810;2023-05-21T05:50:20;98178.03;;;15.85;100.00
1616;BME280;801;47.982;7.810;2023-05-21T05:52:47;98183.16;;;15.73;100.00
1616;BME280;801;47.982;7.810;2023-05-21T05:55:14;98177.56;;;15.28;100.00
1616;BME280;801;47.982;7.810;2023-05-21T05:57:40;98178.81;;;15.58;100.00
1616;BME280;801;47.982;7.810;2023-05-21T06:00:09;98182.13;;;15.83;100.00
1616;BME280;801;47.982;7.810;2023-05-21T06:02:36;98177.91;;;15.90;100.00
1616;BME280;801;47.982;7.810;2023-05-21T06:05:03;98180.63;;;15.90;100.00
1616;BME280;801;47.982;7.810;2023-05-21T06:07:31;98189.84;;;15.89;100.00
1616;BME280;801;47.982;7.810;2023-05-21T06:09:57;98183.16;;;15.59;100.00
1616;BME280;801;47.982;7.810;2023-05-21T06:12:24;98178.31;;;15.70;100.00
1616;BME280;801;47.982;7.810;2023-05-21T06:14:51;98178.41;;;15.65;100.00
1616;BME280;801;47.982;7.810;2023-05-21T06:17:18;98183.75;;;15.70;100.00
1616;BME280;801;47.982;7.810;2023-05-21T06:19:45;98182.75;;;15.80;100.00
1616;BME280;801;47.982;7.810;2023-05-21T06:22:11;98178.75;;;15.77;100.00
1616;BME280;801;47.982;7.810;2023-05-21T06:24:38;98187.38;;;15.65;100.00
1616;BME280;801;47.982;7.810;2023-05-21T06:27:05;98188.16;;;15.66;100.00
1616;BME280;801;47.982;7.810;2023-05-21T06:29:31;98183.16;;;15.59;100.00
1616;BME280;801;47.982;7.810;2023-05-21T06:31:58;98189.25;;;15.65;100.00
1616;BME280;801;47.982;7.810;2023-05-21T06:34:25;98184.03;;;15.68;100.00
1616;BME280;801;47.982;7.810;2023-05-21T06:36:52;98189.28;;;15.79;100.00
1616;BME280;801;47.982;7.810;2023-05-21T06:39:19;98183.91;;;15.87;100.00
1616;BME280;801;47.982;7.810;2023-05-21T06:41:45;98196.53;;;16.06;100.00
1616;BME280;801;47.982;7.810;2023-05-21T06:44:13;98183.31;;;15.90;100.00
1616;BME280;801;47.982;7.810;2023-05-21T06:46:39;98187.47;;;16.10;100.00
1616;BME280;801;47.982;7.810;2023-05-21T06:49:06;98188.50;;;16.01;100.00
1616;BME280;801;47.982;7.810;2023-05-21T06:51:34;98192.44;;;15.94;100.00
1616;BME280;801;47.982;7.810;2023-05-21T06:54:01;98184.91;;;15.91;100.00
1616;BME280;801;47.982;7.810;2023-05-21T06:56:27;98187.91;;;16.04;100.00
1616;BME280;801;47.982;7.810;2023-05-21T06:58:54;98188.44;;;15.92;100.00
1616;BME280;801;47.982;7.810;2023-05-21T07:01:20;98189.66;;;16.22;100.00
1616;BME280;801;47.982;7.810;2023-05-21T07:03:47;98183.44;;;16.22;100.00
1616;BME280;801;47.982;7.810;2023-05-21T07:06:13;98185.22;;;16.26;100.00
1616;BME280;801;47.982;7.810;2023-05-21T07:08:42;98187.31;;;16.29;100.00
1616;BME280;801;47.982;7.810;2023-05-21T07:11:08;98192.97;;;16.19;100.00
1616;BME280;801;47.982;7.810;2023-05-21T07:13:35;98190.28;;;16.42;100.00
1616;BME280;801;47.982;7.810;2023-05-21T07:16:02;98192.38;;;16.45;100.00
1616;BME280;801;47.982;7.810;2023-05-21T07:18:28;98192.84;;;16.47;100.00
1616;BME280;801;47.982;7.810;2023-05-21T07:20:55;98192.34;;;16.67;100.00
1616;BME280;801;47.982;7.810;2023-05-21T07:23:22;98191.34;;;16.63;100.00
1616;BME280;801;47.982;7.810;2023-05-21T07:25:50;98184.19;;;16.90;100.00
1616;BME280;801;47.982;7.810;2023-05-21T07:28:17;98188.34;;;16.87;100.00
1616;BME280;801;47.982;7.810;2023-05-21T07:30:44;98194.22;;;16.80;100.00
1616;BME280;801;47.982;7.810;2023-05-21T07:33:11;98186.63;;;16.91;100.00
1616;BME280;801;47.982;7.810;2023-05-21T07:35:38;98184.97;;;16.82;100.00
1616;BME280;801;47.982;7.810;2023-05-21T07:38:05;98184.69;;;16.92;100.00
1616;BME280;801;47.982;7.810;2023-05-21T07:40:31;98187.03;;;17.16;100.00
1616;BME280;801;47.982;7.810;2023-05-21T07:42:59;98192.84;;;17.32;100.00
1616;BME280;801;47.982;7.810;2023-05-21T07:45:25;98181.72;;;17.42;100.00
1616;BME280;801;47.982;7.810;2023-05-21T07:47:52;98183.25;;;17.17;100.00
1616;BME280;801;47.982;7.810;2023-05-21T07:50:18;98181.88;;;17.06;100.00
1616;BME280;801;47.982;7.810;2023-05-21T07:52:45;98178.44;;;17.22;100.00
1616;BME280;801;47.982;7.810;2023-05-21T07:55:11;98179.50;;;17.04;100.00
1616;BME280;801;47.982;7.810;2023-05-21T07:57:38;98194.09;;;17.26;100.00
1616;BME280;801;47.982;7.810;2023-05-21T08:00:07;98186.59;;;17.22;100.00
1616;BME280;801;47.982;7.810;2023-05-21T08:02:35;98186.81;;;17.35;100.00
1616;BME280;801;47.982;7.810;2023-05-21T08:05:02;98185.63;;;17.18;100.00
1616;BME280;801;47.982;7.810;2023-05-21T08:07:29;98182.34;;;17.48;100.00
1616;BME280;801;47.982;7.810;2023-05-21T08:09:56;98184.66;;;17.72;100.00
1616;BME280;801;47.982;7.810;2023-05-21T08:12:22;98187.66;;;17.53;100.00
1616;BME280;801;47.982;7.810;2023-05-21T08:14:49;98184.50;;;17.59;100.00
1616;BME280;801;47.982;7.810;2023-05-21T08:17:17;98183.41;;;17.78;100.00
1616;BME280;801;47.982;7.810;2023-05-21T08:19:43;98174.00;;;17.84;100.00
1616;BME280;801;47.982;7.810;2023-05-21T08:22:10;98174.63;;;17.90;100.00
1616;BME280;801;47.982;7.810;2023-05-21T08:24:36;98170.19;;;18.11;100.00
1616;BME280;801;47.982;7.810;2023-05-21T08:27:04;98176.41;;;17.94;100.00
1616;BME280;801;47.982;7.810;2023-05-21T08:29:30;98172.41;;;17.92;100.00
1616;BME280;801;47.982;7.810;2023-05-21T08:31:57;98167.78;;;18.27;100.00
1616;BME280;801;47.982;7.810;2023-05-21T08:34:25;98174.94;;;18.66;100.00
1616;BME280;801;47.982;7.810;2023-05-21T08:36:51;98174.31;;;18.52;100.00
1616;BME280;801;47.982;7.810;2023-05-21T08:39:18;98178.31;;;18.37;100.00
1616;BME280;801;47.982;7.810;2023-05-21T08:41:45;98175.88;;;18.62;100.00
1616;BME280;801;47.982;7.810;2023-05-21T08:44:14;98180.00;;;18.94;100.00
1616;BME280;801;47.982;7.810;2023-05-21T08:46:44;98184.19;;;18.65;100.00
1616;BME280;801;47.982;7.810;2023-05-21T08:49:16;98172.34;;;18.87;100.00
1616;BME280;801;47.982;7.810;2023-05-21T08:51:45;98168.25;;;19.11;100.00
1616;BME280;801;47.982;7.810;2023-05-21T08:54:12;98173.03;;;19.14;100.00
1616;BME280;801;47.982;7.810;2023-05-21T08:56:40;98167.94;;;19.42;100.00
1616;BME280;801;47.982;7.810;2023-05-21T08:59:11;98174.00;;;19.18;100.00
1616;BME280;801;47.982;7.810;2023-05-21T09:01:38;98175.28;;;19.12;100.00
1616;BME280;801;47.982;7.810;2023-05-21T09:04:07;98175.22;;;19.29;100.00
1616;BME280;801;47.982;7.810;2023-05-21T09:06:33;98177.34;;;19.83;100.00
1616;BME280;801;47.982;7.810;2023-05-21T09:09:05;98177.34;;;20.25;100.00
1616;BME280;801;47.982;7.810;2023-05-21T09:11:36;98182.38;;;19.94;100.00
1616;BME280;801;47.982;7.810;2023-05-21T09:14:03;98176.25;;;19.76;100.00
1616;BME280;801;47.982;7.810;2023-05-21T09:16:30;98178.22;;;19.96;100.00
1616;BME280;801;47.982;7.810;2023-05-21T09:18:57;98178.22;;;19.96;100.00
1616;BME280;801;47.982;7.810;2023-05-21T09:21:24;98181.59;;;19.93;100.00
1616;BME280;801;47.982;7.810;2023-05-21T09:23:53;98177.22;;;20.22;100.00
1616;BME280;801;47.982;7.810;2023-05-21T09:26:22;98174.81;;;20.53;100.00
1616;BME280;801;47.982;7.810;2023-05-21T09:28:49;98179.16;;;20.21;100.00
1616;BME280;801;47.982;7.810;2023-05-21T09:31:16;98171.16;;;20.49;100.00
1616;BME280;801;47.982;7.810;2023-05-21T09:33:45;98179.63;;;20.90;100.00
1616;BME280;801;47.982;7.810;2023-05-21T09:36:12;98174.91;;;20.66;100.00
1616;BME280;801;47.982;7.810;2023-05-21T09:38:39;98176.69;;;20.95;100.00
1616;BME280;801;47.982;7.810;2023-05-21T09:41:05;98181.03;;;20.63;100.00
1616;BME280;801;47.982;7.810;2023-05-21T09:43:33;98179.31;;;20.37;100.00
1616;BME280;801;47.982;7.810;2023-05-21T09:46:01;98177.47;;;20.96;100.00
1616;BME280;801;47.982;7.810;2023-05-21T09:48:35;98175.25;;;21.47;100.00
1616;BME280;801;47.982;7.810;2023-05-21T09:51:12;98172.47;;;20.98;100.00
1616;BME280;801;47.982;7.810;2023-05-21T09:53:52;98171.81;;;21.13;100.00
1616;BME280;801;47.982;7.810;2023-05-21T09:56:20;98172.59;;;21.13;100.00
1616;BME280;801;47.982;7.810;2023-05-21T09:58:52;98170.50;;;21.44;100.00
1616;BME280;801;47.982;7.810;2023-05-21T10:01:19;98176.13;;;21.88;100.00
1616;BME280;801;47.982;7.810;2023-05-21T10:03:49;98176.97;;;22.16;100.00
1616;BME280;801;47.982;7.810;2023-05-21T10:06:17;98171.19;;;22.46;100.00
1616;BME280;801;47.982;7.810;2023-05-21T10:08:47;98175.91;;;21.93;100.00
1616;BME280;801;47.982;7.810;2023-05-21T10:11:15;98169.03;;;21.99;100.00
1616;BME280;801;47.982;7.810;2023-05-21T10:13:44;98164.72;;;21.98;100.00
1616;BME280;801;47.982;7.810;2023-05-21T10:16:15;98163.41;;;22.08;100.00
1616;BME280;801;47.982;7.810;2023-05-21T10:18:43;98163.78;;;22.06;100.00
1616;BME280;801;47.982;7.810;2023-05-21T10:21:10;98163.28;;;22.29;100.00
1616;BME280;801;47.982;7.810;2023-05-21T10:23:38;98159.34;;;22.42;100.00
1616;BME280;801;47.982;7.810;2023-05-21T10:26:06;98160.31;;;22.50;100.00
1616;BME280;801;47.982;7.810;2023-05-21T10:28:33;98158.25;;;22.18;100.00
1616;BME280;801;47.982;7.810;2023-05-21T10:31:00;98156.72;;;22.05;100.00
1616;BME280;801;47.982;7.810;2023-05-21T10:33:29;98158.09;;;22.84;100.00
1616;BME280;801;47.982;7.810;2023-05-21T10:35:57;98157.69;;;22.97;100.00
1616;BME280;801;47.982;7.810;2023-05-21T10:38:23;98147.19;;;23.15;100.00
1616;BME280;801;47.982;7.810;2023-05-21T10:40:52;98143.25;;;23.32;100.00
1616;BME280;801;47.982;7.810;2023-05-21T10:43:36;98142.25;;;23.56;100.00
1616;BME280;801;47.982;7.810;2023-05-21T10:46:24;98142.22;;;24.08;100.00
1616;BME280;801;47.982;7.810;2023-05-21T10:49:11;98147.75;;;24.11;100.00
1616;BME280;801;47.982;7.810;2023-05-21T10:51:48;98147.97;;;24.22;100.00
1616;BME280;801;47.982;7.810;2023-05-21T10:57:37;98142.84;;;24.40;98.68
1616;BME280;801;47.982;7.810;2023-05-21T11:00:10;98127.84;;;24.34;99.79
1616;BME280;801;47.982;7.810;2023-05-21T11:02:37;98139.13;;;24.09;96.84
1616;BME280;801;47.982;7.810;2023-05-21T11:05:06;98134.22;;;24.18;100.00
1616;BME280;801;47.982;7.810;2023-05-21T11:07:51;98139.44;;;24.66;99.50
1616;BME280;801;47.982;7.810;2023-05-21T11:10:34;98136.25;;;24.44;95.74
1616;BME280;801;47.982;7.810;2023-05-21T11:13:06;98135.28;;;23.94;99.80
1616;BME280;801;47.982;7.810;2023-05-21T11:16:04;98138.81;;;23.95;98.89
1616;BME280;801;47.982;7.810;2023-05-21T11:18:59;98133.03;;;24.19;99.31
1616;BME280;801;47.982;7.810;2023-05-21T11:21:33;98127.72;;;24.69;97.19
1616;BME280;801;47.982;7.810;2023-05-21T11:24:02;98133.16;;;24.27;97.30
1616;BME280;801;47.982;7.810;2023-05-21T11:26:31;98138.88;;;24.37;95.87
1616;BME280;801;47.982;7.810;2023-05-21T11:29:17;98127.50;;;25.24;93.51
1616;BME280;801;47.982;7.810;2023-05-21T11:31:44;98130.53;;;24.96;94.08
1616;BME280;801;47.982;7.810;2023-05-21T11:34:11;98132.84;;;25.40;94.22
1616;BME280;801;47.982;7.810;2023-05-21T11:36:40;98123.94;;;25.00;94.68
1616;BME280;801;47.982;7.810;2023-05-21T11:39:08;98130.19;;;24.74;96.66
1616;BME280;801;47.982;7.810;2023-05-21T11:41:49;98120.81;;;25.25;97.31
1616;BME280;801;47.982;7.810;2023-05-21T11:44:15;98118.19;;;25.09;95.98
1616;BME280;801;47.982;7.810;2023-05-21T11:46:42;98121.25;;;25.27;97.38
1616;BME280;801;47.982;7.810;2023-05-21T11:49:09;98123.63;;;25.29;97.12
1616;BME280;801;47.982;7.810;2023-05-21T11:51:35;98121.94;;;25.47;95.00
1616;BME280;801;47.982;7.810;2023-05-21T11:54:03;98116.06;;;25.75;90.27
1616;BME280;801;47.982;7.810;2023-05-21T11:56:31;98130.84;;;25.94;89.93
1616;BME280;801;47.982;7.810;2023-05-21T11:59:00;98120.38;;;25.46;94.39
1616;BME280;801;47.982;7.810;2023-05-21T12:01:27;98127.06;;;25.48;94.45
1616;BME280;801;47.982;7.810;2023-05-21T12:03:55;98121.97;;;24.78;96.54
1616;BME280;801;47.982;7.810;2023-05-21T12:06:25;98110.81;;;24.90;97.20
1616;BME280;801;47.982;7.810;2023-05-21T12:08:51;98116.59;;;25.58;93.65
1616;BME280;801;47.982;7.810;2023-05-21T12:11:23;98119.91;;;26.31;94.62
1616;BME280;801;47.982;7.810;2023-05-21T12:13:50;98122.81;;;26.12;91.47
1616;BME280;801;47.982;7.810;2023-05-21T12:16:17;98128.91;;;25.94;92.19
1616;BME280;801;47.982;7.810;2023-05-21T12:18:44;98117.75;;;25.83;90.79
1616;BME280;801;47.982;7.810;2023-05-21T12:21:10;98132.34;;;25.87;92.70
1616;BME280;801;47.982;7.810;2023-05-21T12:23:37;98130.94;;;25.71;90.92
1616;BME280;801;47.982;7.810;2023-05-21T12:26:04;98129.66;;;25.64;91.25
1616;BME280;801;47.982;7.810;2023-05-21T12:28:32;98130.00;;;25.63;91.26
1616;BME280;801;47.982;7.810;2023-05-21T12:30:58;98133.06;;;25.84;89.41
1616;BME280;801;47.982;7.810;2023-05-21T12:33:32;98139.47;;;26.22;86.82
1616;BME280;801;47.982;7.810;2023-05-21T12:35:59;98141.56;;;26.33;86.98
1616;BME280;801;47.982;7.810;2023-05-21T12:38:29;98133.94;;;25.35;91.41
1616;BME280;801;47.982;7.810;2023-05-21T12:41:02;98143.16;;;25.46;93.57
1616;BME280;801;47.982;7.810;2023-05-21T12:43:32;98153.34;;;24.96;92.86
1616;BME280;801;47.982;7.810;2023-05-21T12:45:59;98142.50;;;24.61;95.35
1616;BME280;801;47.982;7.810;2023-05-21T12:48:25;98160.19;;;24.44;96.05
1616;BME280;801;47.982;7.810;2023-05-21T12:50:52;98162.28;;;24.70;95.76
1616;BME280;801;47.982;7.810;2023-05-21T12:53:18;98157.84;;;24.85;94.67
1616;BME280;801;47.982;7.810;2023-05-21T12:55:45;98160.28;;;25.36;94.15
1616;BME280;801;47.982;7.810;2023-05-21T12:58:12;98166.63;;;25.67;94.10
1616;BME280;801;47.982;7.810;2023-05-21T13:00:42;98161.78;;;25.83;94.25
1616;BME280;801;47.982;7.810;2023-05-21T13:03:09;98160.84;;;25.72;92.22
1616;BME280;801;47.982;7.810;2023-05-21T13:05:38;98170.59;;;25.69;91.93
1616;BME280;801;47.982;7.810;2023-05-21T13:08:05;98165.69;;;25.82;92.31
1616;BME280;801;47.982;7.810;2023-05-21T13:10:33;98157.75;;;25.77;90.94
1616;BME280;801;47.982;7.810;2023-05-21T13:13:00;98158.72;;;25.88;91.00
1616;BME280;801;47.982;7.810;2023-05-21T13:15:26;98154.66;;;25.29;90.41
1616;BME280;801;47.982;7.810;2023-05-21T13:17:56;98140.91;;;25.06;92.41
1616;BME280;801;47.982;7.810;2023-05-21T13:20:22;98146.59;;;24.71;93.72
1616;BME280;801;47.982;7.810;2023-05-21T13:22:51;98139.53;;;24.70;95.00
1616;BME280;801;47.982;7.810;2023-05-21T13:25:19;98128.63;;;24.54;96.04
1616;BME280;801;47.982;7.810;2023-05-21T13:27:46;98129.03;;;24.56;96.80
1616;BME280;801;47.982;7.810;2023-05-21T13:30:13;98128.34;;;24.00;98.17
1616;BME280;801;47.982;7.810;2023-05-21T13:32:40;98124.66;;;23.93;98.91